Terminal Aerodrome Forecast
Issued by NWS

Home | Current Version | Previous Version | Text Only | Print | Product List | Glossary On
Versions: 1 2 3 4 5 6 7 8 9 10 11 12 13 14
000
FTUS42 KRAH 260544
TAFRWI
TAF
KRWI 260544Z 2606/2706 VRB03KT P6SM FEW050 SCT250
      TEMPO 2609/2612 2SM BR SCT004=

USA.gov is the U.S. government's official web portal to all federal, state and local government web resources and services.